sensor_id;sensor_type;location;lat;lon;timestamp;P1;durP1;ratioP1;P2;durP2;ratioP2
21438;SDS011;10880;50.302;18.736;2023-02-15T00:00:15;14.67;;;7.30;;
21438;SDS011;10880;50.302;18.736;2023-02-15T00:02:45;16.63;;;8.03;;
21438;SDS011;10880;50.302;18.736;2023-02-15T00:05:12;19.50;;;10.70;;
21438;SDS011;10880;50.302;18.736;2023-02-15T00:07:38;27.20;;;11.80;;
21438;SDS011;10880;50.302;18.736;2023-02-15T00:10:05;19.83;;;10.33;;
21438;SDS011;10880;50.302;18.736;2023-02-15T00:12:32;19.33;;;9.07;;
21438;SDS011;10880;50.302;18.736;2023-02-15T00:14:59;14.80;;;7.40;;
21438;SDS011;10880;50.302;18.736;2023-02-15T00:17:27;14.50;;;8.17;;
21438;SDS011;10880;50.302;18.736;2023-02-15T00:19:55;16.80;;;8.47;;
21438;SDS011;10880;50.302;18.736;2023-02-15T00:22:21;16.00;;;8.37;;
21438;SDS011;10880;50.302;18.736;2023-02-15T00:24:47;18.57;;;8.53;;
21438;SDS011;10880;50.302;18.736;2023-02-15T00:27:15;12.00;;;7.20;;
21438;SDS011;10880;50.302;18.736;2023-02-15T00:29:42;10.90;;;6.37;;
21438;SDS011;10880;50.302;18.736;2023-02-15T00:32:08;15.83;;;9.43;;
21438;SDS011;10880;50.302;18.736;2023-02-15T00:34:35;10.70;;;7.00;;
21438;SDS011;10880;50.302;18.736;2023-02-15T00:37:01;14.93;;;7.63;;
21438;SDS011;10880;50.302;18.736;2023-02-15T00:39:30;16.67;;;8.53;;
21438;SDS011;10880;50.302;18.736;2023-02-15T00:41:58;12.53;;;8.00;;
21438;SDS011;10880;50.302;18.736;2023-02-15T00:44:25;15.17;;;8.40;;
21438;SDS011;10880;50.302;18.736;2023-02-15T00:46:52;15.27;;;7.70;;
21438;SDS011;10880;50.302;18.736;2023-02-15T00:49:20;11.57;;;7.07;;
21438;SDS011;10880;50.302;18.736;2023-02-15T00:51:47;8.87;;;5.90;;
21438;SDS011;10880;50.302;18.736;2023-02-15T00:54:14;14.13;;;7.40;;
21438;SDS011;10880;50.302;18.736;2023-02-15T00:56:41;13.73;;;7.73;;
21438;SDS011;10880;50.302;18.736;2023-02-15T00:59:08;13.03;;;7.03;;
21438;SDS011;10880;50.302;18.736;2023-02-15T01:01:35;14.23;;;7.57;;
21438;SDS011;10880;50.302;18.736;2023-02-15T01:04:01;15.47;;;8.20;;
21438;SDS011;10880;50.302;18.736;2023-02-15T01:06:28;22.27;;;11.47;;
21438;SDS011;10880;50.302;18.736;2023-02-15T01:08:55;18.13;;;8.93;;
21438;SDS011;10880;50.302;18.736;2023-02-15T01:11:22;12.43;;;7.37;;
21438;SDS011;10880;50.302;18.736;2023-02-15T01:13:53;14.03;;;7.43;;
21438;SDS011;10880;50.302;18.736;2023-02-15T01:16:22;15.87;;;8.70;;
21438;SDS011;10880;50.302;18.736;2023-02-15T01:18:51;20.43;;;10.53;;
21438;SDS011;10880;50.302;18.736;2023-02-15T01:21:20;20.83;;;11.57;;
21438;SDS011;10880;50.302;18.736;2023-02-15T01:23:48;16.93;;;8.57;;
21438;SDS011;10880;50.302;18.736;2023-02-15T01:26:15;13.90;;;8.13;;
21438;SDS011;10880;50.302;18.736;2023-02-15T01:28:44;14.93;;;7.80;;
21438;SDS011;10880;50.302;18.736;2023-02-15T01:31:16;26.87;;;12.70;;
21438;SDS011;10880;50.302;18.736;2023-02-15T01:33:45;19.50;;;10.00;;
21438;SDS011;10880;50.302;18.736;2023-02-15T01:36:12;18.43;;;9.83;;
21438;SDS011;10880;50.302;18.736;2023-02-15T01:42:23;18.47;;;10.03;;
21438;SDS011;10880;50.302;18.736;2023-02-15T01:47:41;18.60;;;9.93;;
21438;SDS011;10880;50.302;18.736;2023-02-15T01:53:09;17.10;;;8.53;;
21438;SDS011;10880;50.302;18.736;2023-02-15T01:55:52;19.17;;;10.23;;
21438;SDS011;10880;50.302;18.736;2023-02-15T01:58:23;23.40;;;13.13;;
21438;SDS011;10880;50.302;18.736;2023-02-15T02:00:52;18.53;;;9.70;;
21438;SDS011;10880;50.302;18.736;2023-02-15T02:03:25;17.83;;;9.03;;
21438;SDS011;10880;50.302;18.736;2023-02-15T02:06:08;14.73;;;8.77;;
21438;SDS011;10880;50.302;18.736;2023-02-15T02:08:35;20.83;;;11.23;;
21438;SDS011;10880;50.302;18.736;2023-02-15T02:11:02;25.77;;;14.27;;
21438;SDS011;10880;50.302;18.736;2023-02-15T02:13:28;19.40;;;10.50;;
21438;SDS011;10880;50.302;18.736;2023-02-15T02:16:00;23.63;;;12.57;;
21438;SDS011;10880;50.302;18.736;2023-02-15T02:21:25;25.03;;;12.87;;
21438;SDS011;10880;50.302;18.736;2023-02-15T02:27:01;21.70;;;11.87;;
21438;SDS011;10880;50.302;18.736;2023-02-15T02:29:55;25.20;;;12.73;;
21438;SDS011;10880;50.302;18.736;2023-02-15T02:35:34;22.00;;;11.43;;
21438;SDS011;10880;50.302;18.736;2023-02-15T02:41:33;14.53;;;8.17;;
21438;SDS011;10880;50.302;18.736;2023-02-15T02:44:25;11.43;;;6.80;;
21438;SDS011;10880;50.302;18.736;2023-02-15T02:50:25;15.20;;;8.77;;
21438;SDS011;10880;50.302;18.736;2023-02-15T02:52:53;14.07;;;8.03;;
21438;SDS011;10880;50.302;18.736;2023-02-15T02:55:25;12.47;;;7.50;;
21438;SDS011;10880;50.302;18.736;2023-02-15T03:04:10;14.73;;;8.50;;
21438;SDS011;10880;50.302;18.736;2023-02-15T03:06:49;14.67;;;7.73;;
21438;SDS011;10880;50.302;18.736;2023-02-15T03:15:10;16.60;;;8.97;;
21438;SDS011;10880;50.302;18.736;2023-02-15T03:18:09;18.00;;;8.13;;
21438;SDS011;10880;50.302;18.736;2023-02-15T03:20:43;18.17;;;10.23;;
21438;SDS011;10880;50.302;18.736;2023-02-15T03:23:21;22.23;;;10.87;;
21438;SDS011;10880;50.302;18.736;2023-02-15T03:26:11;17.57;;;10.33;;
21438;SDS011;10880;50.302;18.736;2023-02-15T03:28:44;17.53;;;9.87;;
21438;SDS011;10880;50.302;18.736;2023-02-15T03:31:40;17.00;;;9.47;;
21438;SDS011;10880;50.302;18.736;2023-02-15T03:34:13;21.23;;;11.10;;
21438;SDS011;10880;50.302;18.736;2023-02-15T03:36:46;15.57;;;8.93;;
21438;SDS011;10880;50.302;18.736;2023-02-15T03:39:18;14.30;;;7.83;;
21438;SDS011;10880;50.302;18.736;2023-02-15T03:45:09;11.23;;;6.30;;
21438;SDS011;10880;50.302;18.736;2023-02-15T03:47:47;16.33;;;9.43;;
21438;SDS011;10880;50.302;18.736;2023-02-15T03:50:33;17.80;;;9.37;;
21438;SDS011;10880;50.302;18.736;2023-02-15T03:53:28;11.23;;;6.80;;
21438;SDS011;10880;50.302;18.736;2023-02-15T03:55:58;10.47;;;6.60;;
21438;SDS011;10880;50.302;18.736;2023-02-15T03:58:29;18.47;;;10.23;;
21438;SDS011;10880;50.302;18.736;2023-02-15T04:01:21;21.57;;;11.90;;
21438;SDS011;10880;50.302;18.736;2023-02-15T04:07:48;12.20;;;7.23;;
21438;SDS011;10880;50.302;18.736;2023-02-15T04:10:36;12.93;;;7.63;;
21438;SDS011;10880;50.302;18.736;2023-02-15T04:13:22;17.03;;;9.63;;
21438;SDS011;10880;50.302;18.736;2023-02-15T04:16:07;15.97;;;9.03;;
21438;SDS011;10880;50.302;18.736;2023-02-15T04:18:38;13.57;;;7.97;;
21438;SDS011;10880;50.302;18.736;2023-02-15T04:21:48;16.20;;;9.53;;
21438;SDS011;10880;50.302;18.736;2023-02-15T04:24:51;12.43;;;7.83;;
21438;SDS011;10880;50.302;18.736;2023-02-15T04:27:40;14.23;;;7.93;;
21438;SDS011;10880;50.302;18.736;2023-02-15T04:30:22;14.40;;;8.93;;
21438;SDS011;10880;50.302;18.736;2023-02-15T04:32:56;10.63;;;6.60;;
21438;SDS011;10880;50.302;18.736;2023-02-15T04:35:37;11.90;;;6.27;;
21438;SDS011;10880;50.302;18.736;2023-02-15T04:38:04;8.53;;;5.87;;
21438;SDS011;10880;50.302;18.736;2023-02-15T04:40:41;12.37;;;7.70;;
21438;SDS011;10880;50.302;18.736;2023-02-15T04:43:43;17.00;;;10.00;;
21438;SDS011;10880;50.302;18.736;2023-02-15T04:46:15;13.03;;;8.47;;
21438;SDS011;10880;50.302;18.736;2023-02-15T04:48:56;10.67;;;7.00;;
21438;SDS011;10880;50.302;18.736;2023-02-15T04:51:26;11.17;;;6.20;;
21438;SDS011;10880;50.302;18.736;2023-02-15T04:53:55;7.30;;;5.03;;
21438;SDS011;10880;50.302;18.736;2023-02-15T04:56:25;13.23;;;7.80;;
21438;SDS011;10880;50.302;18.736;2023-02-15T04:59:03;14.63;;;7.70;;
21438;SDS011;10880;50.302;18.736;2023-02-15T05:01:37;8.87;;;5.53;;
21438;SDS011;10880;50.302;18.736;2023-02-15T05:04:11;10.17;;;6.13;;
21438;SDS011;10880;50.302;18.736;2023-02-15T05:06:38;17.97;;;10.43;;
21438;SDS011;10880;50.302;18.736;2023-02-15T05:09:05;20.10;;;10.80;;
21438;SDS011;10880;50.302;18.736;2023-02-15T05:11:34;18.70;;;10.33;;
21438;SDS011;10880;50.302;18.736;2023-02-15T05:14:05;18.00;;;10.27;;
21438;SDS011;10880;50.302;18.736;2023-02-15T05:16:34;15.13;;;9.40;;
21438;SDS011;10880;50.302;18.736;2023-02-15T05:19:01;13.33;;;8.87;;
21438;SDS011;10880;50.302;18.736;2023-02-15T05:21:31;16.53;;;9.23;;
21438;SDS011;10880;50.302;18.736;2023-02-15T05:23:59;15.47;;;8.90;;
21438;SDS011;10880;50.302;18.736;2023-02-15T05:26:26;11.43;;;7.40;;
21438;SDS011;10880;50.302;18.736;2023-02-15T05:29:14;12.70;;;7.17;;
21438;SDS011;10880;50.302;18.736;2023-02-15T05:31:41;12.80;;;7.43;;
21438;SDS011;10880;50.302;18.736;2023-02-15T05:34:09;19.70;;;10.57;;
21438;SDS011;10880;50.302;18.736;2023-02-15T05:36:36;19.00;;;9.83;;
21438;SDS011;10880;50.302;18.736;2023-02-15T05:39:02;17.27;;;9.60;;
21438;SDS011;10880;50.302;18.736;2023-02-15T05:41:31;10.93;;;6.50;;
21438;SDS011;10880;50.302;18.736;2023-02-15T05:43:58;11.63;;;6.70;;
21438;SDS011;10880;50.302;18.736;2023-02-15T05:46:25;16.10;;;8.70;;
21438;SDS011;10880;50.302;18.736;2023-02-15T05:48:52;11.03;;;7.57;;
21438;SDS011;10880;50.302;18.736;2023-02-15T05:51:19;18.33;;;10.83;;
21438;SDS011;10880;50.302;18.736;2023-02-15T05:53:47;21.37;;;10.77;;
21438;SDS011;10880;50.302;18.736;2023-02-15T05:56:15;17.60;;;10.10;;
21438;SDS011;10880;50.302;18.736;2023-02-15T05:58:41;20.30;;;11.63;;
21438;SDS011;10880;50.302;18.736;2023-02-15T06:01:12;18.80;;;10.80;;
21438;SDS011;10880;50.302;18.736;2023-02-15T06:03:40;21.37;;;11.13;;
21438;SDS011;10880;50.302;18.736;2023-02-15T06:06:07;17.37;;;10.23;;
21438;SDS011;10880;50.302;18.736;2023-02-15T06:08:34;17.60;;;10.43;;
21438;SDS011;10880;50.302;18.736;2023-02-15T06:11:02;14.20;;;9.20;;
21438;SDS011;10880;50.302;18.736;2023-02-15T06:13:30;15.47;;;8.93;;
21438;SDS011;10880;50.302;18.736;2023-02-15T06:15:58;15.67;;;9.40;;
21438;SDS011;10880;50.302;18.736;2023-02-15T06:18:24;15.80;;;8.73;;
21438;SDS011;10880;50.302;18.736;2023-02-15T06:20:51;15.13;;;8.57;;
21438;SDS011;10880;50.302;18.736;2023-02-15T06:23:18;12.17;;;6.90;;
21438;SDS011;10880;50.302;18.736;2023-02-15T06:25:50;23.37;;;11.93;;
21438;SDS011;10880;50.302;18.736;2023-02-15T06:28:19;20.50;;;10.50;;
21438;SDS011;10880;50.302;18.736;2023-02-15T06:30:48;17.63;;;10.90;;
21438;SDS011;10880;50.302;18.736;2023-02-15T06:33:14;16.03;;;10.17;;
21438;SDS011;10880;50.302;18.736;2023-02-15T06:35:41;12.93;;;8.20;;
21438;SDS011;10880;50.302;18.736;2023-02-15T06:38:07;12.13;;;7.23;;
21438;SDS011;10880;50.302;18.736;2023-02-15T06:40:34;15.83;;;9.40;;
21438;SDS011;10880;50.302;18.736;2023-02-15T06:43:02;20.10;;;10.93;;
21438;SDS011;10880;50.302;18.736;2023-02-15T06:45:29;22.80;;;11.40;;
21438;SDS011;10880;50.302;18.736;2023-02-15T06:47:56;19.17;;;9.83;;
21438;SDS011;10880;50.302;18.736;2023-02-15T06:50:23;18.63;;;10.43;;
21438;SDS011;10880;50.302;18.736;2023-02-15T06:52:54;24.97;;;12.77;;
21438;SDS011;10880;50.302;18.736;2023-02-15T06:55:22;23.17;;;12.53;;
21438;SDS011;10880;50.302;18.736;2023-02-15T06:57:51;21.00;;;11.87;;
21438;SDS011;10880;50.302;18.736;2023-02-15T07:00:18;20.73;;;11.07;;
21438;SDS011;10880;50.302;18.736;2023-02-15T07:02:44;25.10;;;13.80;;
21438;SDS011;10880;50.302;18.736;2023-02-15T07:05:11;21.70;;;12.20;;
21438;SDS011;10880;50.302;18.736;2023-02-15T07:07:39;24.67;;;13.77;;
21438;SDS011;10880;50.302;18.736;2023-02-15T07:10:06;23.83;;;12.43;;
21438;SDS011;10880;50.302;18.736;2023-02-15T07:12:33;30.23;;;15.73;;
21438;SDS011;10880;50.302;18.736;2023-02-15T07:15:09;28.43;;;15.53;;
21438;SDS011;10880;50.302;18.736;2023-02-15T07:17:43;26.03;;;14.00;;
21438;SDS011;10880;50.302;18.736;2023-02-15T07:20:11;17.60;;;10.00;;
21438;SDS011;10880;50.302;18.736;2023-02-15T07:22:40;26.93;;;15.27;;
21438;SDS011;10880;50.302;18.736;2023-02-15T07:25:07;32.93;;;17.50;;
21438;SDS011;10880;50.302;18.736;2023-02-15T07:27:35;30.53;;;16.10;;
21438;SDS011;10880;50.302;18.736;2023-02-15T07:30:02;31.40;;;16.80;;
21438;SDS011;10880;50.302;18.736;2023-02-15T07:32:29;24.30;;;13.43;;
21438;SDS011;10880;50.302;18.736;2023-02-15T07:34:58;20.03;;;11.77;;
21438;SDS011;10880;50.302;18.736;2023-02-15T07:37:25;25.87;;;13.73;;
21438;SDS011;10880;50.302;18.736;2023-02-15T07:39:53;33.47;;;17.27;;
21438;SDS011;10880;50.302;18.736;2023-02-15T07:42:20;29.27;;;15.03;;
21438;SDS011;10880;50.302;18.736;2023-02-15T07:44:47;34.43;;;18.27;;
21438;SDS011;10880;50.302;18.736;2023-02-15T07:47:14;33.13;;;18.27;;
21438;SDS011;10880;50.302;18.736;2023-02-15T07:49:41;22.97;;;13.00;;
21438;SDS011;10880;50.302;18.736;2023-02-15T07:52:07;18.13;;;9.73;;
21438;SDS011;10880;50.302;18.736;2023-02-15T07:54:34;27.90;;;15.80;;
21438;SDS011;10880;50.302;18.736;2023-02-15T07:57:01;22.90;;;13.60;;
21438;SDS011;10880;50.302;18.736;2023-02-15T07:59:28;32.60;;;17.93;;
21438;SDS011;10880;50.302;18.736;2023-02-15T08:01:55;30.03;;;15.77;;
21438;SDS011;10880;50.302;18.736;2023-02-15T08:04:22;26.63;;;14.80;;
21438;SDS011;10880;50.302;18.736;2023-02-15T08:06:51;33.77;;;18.50;;
21438;SDS011;10880;50.302;18.736;2023-02-15T08:09:20;30.27;;;17.63;;
21438;SDS011;10880;50.302;18.736;2023-02-15T08:11:47;27.30;;;15.77;;
21438;SDS011;10880;50.302;18.736;2023-02-15T08:14:20;24.37;;;14.43;;
21438;SDS011;10880;50.302;18.736;2023-02-15T08:16:51;20.70;;;12.70;;
21438;SDS011;10880;50.302;18.736;2023-02-15T08:21:51;29.10;;;15.70;;
21438;SDS011;10880;50.302;18.736;2023-02-15T08:24:29;26.67;;;14.87;;
21438;SDS011;10880;50.302;18.736;2023-02-15T08:26:59;32.83;;;17.83;;
21438;SDS011;10880;50.302;18.736;2023-02-15T08:29:28;26.47;;;15.90;;
21438;SDS011;10880;50.302;18.736;2023-02-15T08:31:57;29.60;;;16.70;;
21438;SDS011;10880;50.302;18.736;2023-02-15T08:34:28;26.63;;;14.90;;
21438;SDS011;10880;50.302;18.736;2023-02-15T08:36:56;25.83;;;14.13;;
21438;SDS011;10880;50.302;18.736;2023-02-15T08:39:23;27.30;;;15.23;;
21438;SDS011;10880;50.302;18.736;2023-02-15T08:41:50;28.57;;;16.93;;
21438;SDS011;10880;50.302;18.736;2023-02-15T08:44:17;29.80;;;16.67;;
21438;SDS011;10880;50.302;18.736;2023-02-15T08:46:45;32.83;;;17.40;;
21438;SDS011;10880;50.302;18.736;2023-02-15T08:49:18;26.67;;;16.13;;
21438;SDS011;10880;50.302;18.736;2023-02-15T08:51:50;23.63;;;13.60;;
21438;SDS011;10880;50.302;18.736;2023-02-15T08:54:17;28.23;;;16.90;;
21438;SDS011;10880;50.302;18.736;2023-02-15T08:56:46;27.57;;;16.47;;
21438;SDS011;10880;50.302;18.736;2023-02-15T08:59:20;23.87;;;13.97;;
21438;SDS011;10880;50.302;18.736;2023-02-15T09:01:58;29.30;;;16.10;;
21438;SDS011;10880;50.302;18.736;2023-02-15T09:04:25;25.47;;;14.30;;
21438;SDS011;10880;50.302;18.736;2023-02-15T09:06:53;24.63;;;14.10;;
21438;SDS011;10880;50.302;18.736;2023-02-15T09:09:20;19.50;;;12.37;;
21438;SDS011;10880;50.302;18.736;2023-02-15T09:11:48;23.27;;;13.80;;
21438;SDS011;10880;50.302;18.736;2023-02-15T09:14:18;25.87;;;14.93;;
21438;SDS011;10880;50.302;18.736;2023-02-15T09:16:47;25.23;;;14.60;;
21438;SDS011;10880;50.302;18.736;2023-02-15T09:19:17;21.73;;;13.80;;
21438;SDS011;10880;50.302;18.736;2023-02-15T09:21:45;24.50;;;15.17;;
21438;SDS011;10880;50.302;18.736;2023-02-15T09:24:13;29.97;;;17.23;;
21438;SDS011;10880;50.302;18.736;2023-02-15T09:26:43;27.73;;;17.30;;
21438;SDS011;10880;50.302;18.736;2023-02-15T09:29:11;31.77;;;17.07;;
21438;SDS011;10880;50.302;18.736;2023-02-15T09:31:40;26.97;;;16.30;;
21438;SDS011;10880;50.302;18.736;2023-02-15T09:34:11;30.50;;;17.17;;
21438;SDS011;10880;50.302;18.736;2023-02-15T09:36:39;33.10;;;19.37;;
21438;SDS011;10880;50.302;18.736;2023-02-15T09:58:15;31.63;;;17.90;;
21438;SDS011;10880;50.302;18.736;2023-02-15T10:03:56;30.13;;;17.10;;
21438;SDS011;10880;50.302;18.736;2023-02-15T10:09:24;25.37;;;14.87;;
21438;SDS011;10880;50.302;18.736;2023-02-15T10:20:20;14.77;;;9.57;;
21438;SDS011;10880;50.302;18.736;2023-02-15T10:34:27;28.30;;;14.10;;
21438;SDS011;10880;50.302;18.736;2023-02-15T10:51:05;32.13;;;16.50;;
21438;SDS011;10880;50.302;18.736;2023-02-15T10:59:20;21.80;;;12.70;;
21438;SDS011;10880;50.302;18.736;2023-02-15T11:02:02;15.17;;;9.17;;
21438;SDS011;10880;50.302;18.736;2023-02-15T11:09:53;17.60;;;10.30;;
21438;SDS011;10880;50.302;18.736;2023-02-15T11:12:40;30.07;;;15.83;;
21438;SDS011;10880;50.302;18.736;2023-02-15T11:15:25;29.33;;;16.87;;
21438;SDS011;10880;50.302;18.736;2023-02-15T11:17:56;27.90;;;16.13;;
21438;SDS011;10880;50.302;18.736;2023-02-15T11:23:48;15.37;;;9.27;;
21438;SDS011;10880;50.302;18.736;2023-02-15T11:28:51;12.90;;;7.87;;
21438;SDS011;10880;50.302;18.736;2023-02-15T11:31:44;22.00;;;12.20;;
21438;SDS011;10880;50.302;18.736;2023-02-15T11:34:16;22.40;;;12.87;;
21438;SDS011;10880;50.302;18.736;2023-02-15T11:36:52;16.57;;;9.77;;
21438;SDS011;10880;50.302;18.736;2023-02-15T11:39:24;25.57;;;14.33;;
21438;SDS011;10880;50.302;18.736;2023-02-15T11:41:56;21.33;;;10.93;;
21438;SDS011;10880;50.302;18.736;2023-02-15T11:44:30;30.67;;;16.63;;
21438;SDS011;10880;50.302;18.736;2023-02-15T11:47:00;26.90;;;14.73;;
21438;SDS011;10880;50.302;18.736;2023-02-15T11:49:32;20.70;;;12.83;;
21438;SDS011;10880;50.302;18.736;2023-02-15T11:52:01;35.07;;;18.27;;
21438;SDS011;10880;50.302;18.736;2023-02-15T11:54:32;23.10;;;13.37;;
21438;SDS011;10880;50.302;18.736;2023-02-15T11:57:03;21.13;;;11.93;;
21438;SDS011;10880;50.302;18.736;2023-02-15T11:59:59;29.13;;;15.97;;
21438;SDS011;10880;50.302;18.736;2023-02-15T12:02:33;26.50;;;14.00;;
21438;SDS011;10880;50.302;18.736;2023-02-15T12:05:17;25.40;;;14.40;;
21438;SDS011;10880;50.302;18.736;2023-02-15T12:07:54;33.33;;;16.70;;
21438;SDS011;10880;50.302;18.736;2023-02-15T12:11:06;31.33;;;17.37;;
21438;SDS011;10880;50.302;18.736;2023-02-15T12:13:54;32.00;;;17.23;;
21438;SDS011;10880;50.302;18.736;2023-02-15T12:16:23;23.93;;;13.47;;
21438;SDS011;10880;50.302;18.736;2023-02-15T12:18:55;16.30;;;10.27;;
21438;SDS011;10880;50.302;18.736;2023-02-15T12:29:49;17.00;;;9.27;;
21438;SDS011;10880;50.302;18.736;2023-02-15T12:32:28;17.10;;;9.77;;
21438;SDS011;10880;50.302;18.736;2023-02-15T12:35:47;17.90;;;9.50;;
21438;SDS011;10880;50.302;18.736;2023-02-15T12:37:52;20.33;;;11.43;;
21438;SDS011;10880;50.302;18.736;2023-02-15T12:40:26;22.77;;;12.40;;
21438;SDS011;10880;50.302;18.736;2023-02-15T12:42:57;22.77;;;12.30;;
21438;SDS011;10880;50.302;18.736;2023-02-15T12:45:34;29.87;;;15.60;;
21438;SDS011;10880;50.302;18.736;2023-02-15T12:48:09;38.87;;;19.50;;
21438;SDS011;10880;50.302;18.736;2023-02-15T12:50:38;24.40;;;13.00;;
21438;SDS011;10880;50.302;18.736;2023-02-15T12:55:57;24.73;;;12.93;;
21438;SDS011;10880;50.302;18.736;2023-02-15T12:58:32;34.13;;;18.07;;
21438;SDS011;10880;50.302;18.736;2023-02-15T13:03:38;35.80;;;18.37;;
21438;SDS011;10880;50.302;18.736;2023-02-15T13:06:27;31.30;;;16.77;;
21438;SDS011;10880;50.302;18.736;2023-02-15T13:09:33;34.60;;;16.90;;
21438;SDS011;10880;50.302;18.736;2023-02-15T13:11:47;24.47;;;13.67;;
21438;SDS011;10880;50.302;18.736;2023-02-15T13:14:21;28.27;;;14.97;;
21438;SDS011;10880;50.302;18.736;2023-02-15T13:16:56;25.90;;;13.23;;
21438;SDS011;10880;50.302;18.736;2023-02-15T13:19:34;25.33;;;13.17;;
21438;SDS011;10880;50.302;18.736;2023-02-15T13:22:15;24.00;;;13.27;;
21438;SDS011;10880;50.302;18.736;2023-02-15T13:24:51;35.33;;;18.57;;
21438;SDS011;10880;50.302;18.736;2023-02-15T13:27:23;30.33;;;16.10;;
21438;SDS011;10880;50.302;18.736;2023-02-15T13:29:55;30.67;;;16.10;;
21438;SDS011;10880;50.302;18.736;2023-02-15T13:34:58;25.73;;;13.00;;
21438;SDS011;10880;50.302;18.736;2023-02-15T13:40:12;22.83;;;11.73;;
21438;SDS011;10880;50.302;18.736;2023-02-15T14:21:47;12.17;;;7.63;;
21438;SDS011;10880;50.302;18.736;2023-02-15T14:24:39;9.00;;;6.33;;
21438;SDS011;10880;50.302;18.736;2023-02-15T14:30:44;13.87;;;7.70;;
21438;SDS011;10880;50.302;18.736;2023-02-15T14:35:42;11.97;;;7.70;;
21438;SDS011;10880;50.302;18.736;2023-02-15T14:41:12;26.13;;;14.47;;
21438;SDS011;10880;50.302;18.736;2023-02-15T14:49:47;20.17;;;11.27;;
21438;SDS011;10880;50.302;18.736;2023-02-15T14:52:28;18.23;;;9.57;;
21438;SDS011;10880;50.302;18.736;2023-02-15T14:58:01;18.60;;;10.47;;
21438;SDS011;10880;50.302;18.736;2023-02-15T15:00:36;20.13;;;10.97;;
21438;SDS011;10880;50.302;18.736;2023-02-15T15:03:19;12.10;;;7.80;;
21438;SDS011;10880;50.302;18.736;2023-02-15T15:05:53;9.40;;;6.00;;
21438;SDS011;10880;50.302;18.736;2023-02-15T15:08:42;9.43;;;5.70;;
21438;SDS011;10880;50.302;18.736;2023-02-15T15:14:04;16.10;;;9.70;;
21438;SDS011;10880;50.302;18.736;2023-02-15T15:19:09;14.80;;;8.60;;
21438;SDS011;10880;50.302;18.736;2023-02-15T15:41:32;8.27;;;5.13;;
21438;SDS011;10880;50.302;18.736;2023-02-15T15:44:31;8.50;;;5.47;;
21438;SDS011;10880;50.302;18.736;2023-02-15T15:49:59;8.43;;;5.47;;
21438;SDS011;10880;50.302;18.736;2023-02-15T15:52:27;8.37;;;5.33;;
21438;SDS011;10880;50.302;18.736;2023-02-15T15:54:56;8.77;;;5.70;;
21438;SDS011;10880;50.302;18.736;2023-02-15T15:57:34;8.30;;;5.63;;
21438;SDS011;10880;50.302;18.736;2023-02-15T16:02:53;8.47;;;5.47;;
21438;SDS011;10880;50.302;18.736;2023-02-15T16:05:22;9.20;;;5.80;;
21438;SDS011;10880;50.302;18.736;2023-02-15T16:07:49;12.93;;;7.63;;
21438;SDS011;10880;50.302;18.736;2023-02-15T16:10:34;15.77;;;9.47;;
21438;SDS011;10880;50.302;18.736;2023-02-15T16:13:05;18.30;;;10.53;;
21438;SDS011;10880;50.302;18.736;2023-02-15T16:15:34;18.63;;;9.97;;
21438;SDS011;10880;50.302;18.736;2023-02-15T16:18:16;17.03;;;9.97;;
21438;SDS011;10880;50.302;18.736;2023-02-15T16:20:53;17.63;;;10.07;;
21438;SDS011;10880;50.302;18.736;2023-02-15T16:28:48;20.43;;;11.13;;
21438;SDS011;10880;50.302;18.736;2023-02-15T16:31:17;15.00;;;8.70;;
21438;SDS011;10880;50.302;18.736;2023-02-15T16:33:45;25.13;;;13.47;;
21438;SDS011;10880;50.302;18.736;2023-02-15T16:36:24;30.30;;;14.37;;
21438;SDS011;10880;50.302;18.736;2023-02-15T16:43:54;32.40;;;16.63;;
21438;SDS011;10880;50.302;18.736;2023-02-15T16:46:28;29.17;;;14.97;;
21438;SDS011;10880;50.302;18.736;2023-02-15T16:49:04;21.33;;;11.47;;
21438;SDS011;10880;50.302;18.736;2023-02-15T16:51:53;20.50;;;11.40;;
21438;SDS011;10880;50.302;18.736;2023-02-15T16:54:42;17.20;;;10.20;;
21438;SDS011;10880;50.302;18.736;2023-02-15T16:57:15;44.20;;;20.67;;
21438;SDS011;10880;50.302;18.736;2023-02-15T16:59:48;34.40;;;16.87;;
21438;SDS011;10880;50.302;18.736;2023-02-15T17:02:19;35.13;;;18.50;;
21438;SDS011;10880;50.302;18.736;2023-02-15T17:08:27;63.00;;;24.20;;
21438;SDS011;10880;50.302;18.736;2023-02-15T17:10:44;76.27;;;30.13;;
21438;SDS011;10880;50.302;18.736;2023-02-15T17:14:37;84.17;;;32.43;;
21438;SDS011;10880;50.302;18.736;2023-02-15T17:17:12;65.47;;;27.93;;
21438;SDS011;10880;50.302;18.736;2023-02-15T17:19:51;61.70;;;27.03;;
21438;SDS011;10880;50.302;18.736;2023-02-15T17:22:41;83.73;;;36.43;;
21438;SDS011;10880;50.302;18.736;2023-02-15T17:25:16;62.50;;;27.30;;
21438;SDS011;10880;50.302;18.736;2023-02-15T17:29:23;57.20;;;25.50;;
21438;SDS011;10880;50.302;18.736;2023-02-15T17:31:53;62.13;;;29.23;;
21438;SDS011;10880;50.302;18.736;2023-02-15T17:34:42;61.97;;;28.60;;
21438;SDS011;10880;50.302;18.736;2023-02-15T17:39:53;51.10;;;25.17;;
21438;SDS011;10880;50.302;18.736;2023-02-15T17:43:25;40.00;;;19.30;;
21438;SDS011;10880;50.302;18.736;2023-02-15T17:46:19;36.97;;;17.57;;
21438;SDS011;10880;50.302;18.736;2023-02-15T17:48:50;47.63;;;21.63;;
21438;SDS011;10880;50.302;18.736;2023-02-15T17:51:19;58.43;;;27.73;;
21438;SDS011;10880;50.302;18.736;2023-02-15T17:53:49;58.73;;;26.50;;
21438;SDS011;10880;50.302;18.736;2023-02-15T17:56:34;48.20;;;22.47;;
21438;SDS011;10880;50.302;18.736;2023-02-15T17:59:02;32.30;;;16.03;;
21438;SDS011;10880;50.302;18.736;2023-02-15T18:01:33;46.90;;;20.87;;
21438;SDS011;10880;50.302;18.736;2023-02-15T18:04:20;34.00;;;15.67;;
21438;SDS011;10880;50.302;18.736;2023-02-15T18:07:07;45.17;;;20.07;;
21438;SDS011;10880;50.302;18.736;2023-02-15T18:09:53;61.73;;;26.90;;
21438;SDS011;10880;50.302;18.736;2023-02-15T18:12:39;59.70;;;25.73;;
21438;SDS011;10880;50.302;18.736;2023-02-15T18:15:11;42.37;;;18.93;;
21438;SDS011;10880;50.302;18.736;2023-02-15T18:17:39;48.00;;;22.47;;
21438;SDS011;10880;50.302;18.736;2023-02-15T18:20:22;57.23;;;25.57;;
21438;SDS011;10880;50.302;18.736;2023-02-15T18:22:53;40.50;;;19.10;;
21438;SDS011;10880;50.302;18.736;2023-02-15T18:25:20;33.23;;;15.67;;
21438;SDS011;10880;50.302;18.736;2023-02-15T18:27:50;43.00;;;19.70;;
21438;SDS011;10880;50.302;18.736;2023-02-15T18:30:18;35.27;;;17.40;;
21438;SDS011;10880;50.302;18.736;2023-02-15T18:32:47;37.27;;;18.43;;
21438;SDS011;10880;50.302;18.736;2023-02-15T18:35:20;39.00;;;18.80;;
21438;SDS011;10880;50.302;18.736;2023-02-15T18:37:49;70.63;;;31.60;;
21438;SDS011;10880;50.302;18.736;2023-02-15T18:40:21;82.67;;;36.50;;
21438;SDS011;10880;50.302;18.736;2023-02-15T18:42:49;73.97;;;32.57;;
21438;SDS011;10880;50.302;18.736;2023-02-15T18:45:17;59.70;;;27.43;;
21438;SDS011;10880;50.302;18.736;2023-02-15T18:47:53;70.90;;;32.57;;
21438;SDS011;10880;50.302;18.736;2023-02-15T18:50:20;61.20;;;27.47;;
21438;SDS011;10880;50.302;18.736;2023-02-15T18:52:48;59.17;;;25.97;;
21438;SDS011;10880;50.302;18.736;2023-02-15T18:55:17;61.80;;;27.53;;